Baton Rouge Metropolitan, Ryan Field
KBTR : now visible

Airfield :











YOU CAN JOIN US ON...

 
LOGIN :

Register | Disclaimer

   EN    FR    IT 

 









Legend :    VFR   Marginal VFR   IFR   Intensive IFR   Very Intensive IFR
Visi :
Ceiling :
>= 8 km
>= 3000ft
5 to 8 km
1000 to 3000 ft
1500m to 5 km
500 to 1000 ft
800 to 1500m
200 to 500 ft
< 800m
< 200 ft
Symbols :   Thunderstorms  Fog  Heavy snow  Heavy precipitations  Wind > 20 kt






- Airport Elevation : 70 ft
- IATA code : BTR


KBTR - Baton Rouge Metropolitan, Ryan Field

CURRENT METAR :
  • 021718Z 04010KT 1SM +TSRA BR SCT012 BKN019 OVC033 22/22 A3001 RMK AO2 PK WND 33029/1706 WSHFT 1658 LTG DSNT ALQDS RAB04 TSB1657 P0053 T02220217 RVRNO

EXPIRED METARs :
  • 021706Z 33017G29KT 1SM TSRA BR SCT012 BKN019 OVC033 25/23 A3001 RMK AO2 PK WND 33029/1706 LTG DSNT ALQDS RAB04 TSB1657 PRESRR P0000 T02500233 RVRNO
  • 021657Z 04009KT 10SM TS BKN017 BKN023 OVC043 28/26 A2999 RMK AO2 LTG DSNT ALQDS TSB57 T02830256
  • 021635Z 25004KT 10SM VCTS BKN014 OVC043 29/26 A2998 RMK AO2 LTG DSNT ALQDS T02890256
  • 021553Z 27003KT 10SM BKN014 OVC043 28/26 A3000 RMK AO2 LTG DSNT SE AND S SLP157 T02830256
  • 021545Z 29004KT 10SM SCT016 BKN022 OVC043 28/26 A2999 RMK AO2 LTG DSNT SE AND S T02830256
  • 021529Z 29006KT 10SM SCT018 BKN043 29/26 A3000 RMK AO2 LTG DSNT SE AND S AND NW T02890256
  • 021453Z 28006KT 10SM BKN016 BKN085 28/26 A3000 RMK AO2 LTG DSNT SE-SW RAB34E44 SLP158 P0000 60000 T02780256 58003

TAF KBTR
Valid from the 02 at 12:00 until the 03 at 12:00 UTC


021120Z 0212/0312 00000KT P6SM FEW020 SCT100
FM021600 VRB03KT P6SM VCTS BKN025CB
TEMPO 0218/0221 4SM TSRA BR BKN025CB
FM030200 00000KT P6SM SHRA VCTS SCT040CB OVC060
FM030400 00000KT P6SM VCTS SCT025CB BKN045
KZHU FIR / North America



MET'MAP, your aeronautical weather chart ! - Copyright ORBIFLY December 2007 - Disclaimer

ORBIFLY MET'MAP TEAM :

Programming & Development : Alexandra Zaïnal
Concept & original design : Baudouin d'Aumeries
Assistance for programming : Marc-Olivier Méhu
Technical & hardware support : Manuel Goepfert

Contact : metmap@orbifly.com




SOURCES & CREDITS :

   NOAA       Earth
Advisory